Time;durP1;ratioP1;P1;durP2;ratioP2;P2;SDS_P1;SDS_P2;PMS_P1;PMS_P2;Temp;Humidity;BMP_temperature;BMP_pressure;BME280_temperature;BME280_humidity;BME280_pressure;Samples;Min_cycle;Max_cycle;Signal;HPM_P1;HPM_P2
2022/12/09 00:02:04;;;;;;;49.55;34.45;;;;;;;;;;9985790;28;20046;-67
2022/12/09 00:07:00;;;;;;;46.78;34.08;;;;;;;;;;9982485;28;20070;-67
2022/12/09 00:11:55;;;;;;;42.47;29.48;;;;;;;;;;9987492;28;20054;-68
2022/12/09 00:16:49;;;;;;;41.75;27.83;;;;;;;;;;9985347;28;20129;-67
2022/12/09 00:21:46;;;;;;;36.67;27.83;;;;;;;;;;9982641;28;20053;-68
2022/12/09 00:26:43;;;;;;;38.78;26.50;;;;;;;;;;9985911;28;20054;-68
2022/12/09 00:31:37;;;;;;;40.33;27.98;;;;;;;;;;9977771;28;20106;-68
2022/12/09 00:36:32;;;;;;;40.10;29.65;;;;;;;;;;9982062;28;20055;-68
2022/12/09 00:41:28;;;;;;;40.17;30.33;;;;;;;;;;9982326;28;20045;-68
2022/12/09 00:46:21;;;;;;;37.88;28.25;;;;;;;;;;9985342;28;20129;-68
2022/12/09 00:51:19;;;;;;;40.35;29.15;;;;;;;;;;9983344;28;20050;-68
2022/12/09 00:56:12;;;;;;;40.22;28.50;;;;;;;;;;9982859;28;20410;-68
2022/12/09 01:01:07;;;;;;;42.55;29.80;;;;;;;;;;9984700;28;20121;-68
2022/12/09 01:06:11;;;;;;;45.53;30.80;;;;;;;;;;9996412;28;20405;-68
2022/12/09 01:11:13;;;;;;;39.97;29.65;;;;;;;;;;9983870;28;20042;-68
2022/12/09 01:16:20;;;;;;;48.60;34.00;;;;;;;;;;9999227;28;20050;-68
2022/12/09 01:21:15;;;;;;;43.63;31.88;;;;;;;;;;9972464;28;20077;-68
2022/12/09 01:26:09;;;;;;;45.53;31.88;;;;;;;;;;9982949;28;20405;-68
2022/12/09 01:31:08;;;;;;;41.97;30.45;;;;;;;;;;9981468;28;20046;-68
2022/12/09 01:36:06;;;;;;;42.10;33.08;;;;;;;;;;9983383;28;20055;-68
2022/12/09 01:41:00;;;;;;;44.03;32.72;;;;;;;;;;9986141;28;20065;-68
2022/12/09 01:45:53;;;;;;;41.53;31.02;;;;;;;;;;9982995;28;20050;-68
2022/12/09 01:51:12;;;;;;;46.95;32.42;;;;;;;;;;9994435;28;20467;-68
2022/12/09 01:56:18;;;;;;;42.72;31.42;;;;;;;;;;9964512;28;20074;-68
2022/12/09 02:01:11;;;;;;;42.45;31.88;;;;;;;;;;9998414;28;20050;-69
2022/12/09 02:06:06;;;;;;;40.13;30.33;;;;;;;;;;9988976;28;20525;-68
2022/12/09 02:11:25;;;;;;;42.97;32.05;;;;;;;;;;9985786;28;20066;-68
2022/12/09 02:16:22;;;;;;;43.05;32.22;;;;;;;;;;9985912;28;20141;-67
2022/12/09 02:21:21;;;;;;;42.90;33.15;;;;;;;;;;9978820;28;20062;-67
2022/12/09 02:26:29;;;;;;;50.17;32.92;;;;;;;;;;9971360;28;20058;-68
2022/12/09 02:31:45;;;;;;;44.50;33.90;;;;;;;;;;9967480;28;20046;-68
2022/12/09 02:37:05;;;;;;;41.58;30.38;;;;;;;;;;9988718;28;20054;-68
2022/12/09 02:42:01;;;;;;;47.93;32.47;;;;;;;;;;9992433;28;20125;-68
2022/12/09 02:46:57;;;;;;;41.55;30.48;;;;;;;;;;9987381;28;20050;-68
2022/12/09 02:51:51;;;;;;;47.67;32.67;;;;;;;;;;9987054;28;20046;-68
2022/12/09 02:56:52;;;;;;;43.97;31.60;;;;;;;;;;9970747;28;20046;-68
2022/12/09 03:02:04;;;;;;;45.08;30.75;;;;;;;;;;9980538;28;20042;-68
2022/12/09 03:07:14;;;;;;;48.33;35.92;;;;;;;;;;9988596;28;20061;-68
2022/12/09 03:12:10;;;;;;;47.90;32.85;;;;;;;;;;9991981;28;20061;-68
2022/12/09 03:17:18;;;;;;;45.25;31.52;;;;;;;;;;9982842;28;20046;-69
2022/12/09 03:22:18;;;;;;;47.13;34.60;;;;;;;;;;9993271;28;20108;-69
2022/12/09 03:27:17;;;;;;;48.72;34.55;;;;;;;;;;9984977;28;20413;-69
2022/12/09 03:32:11;;;;;;;46.72;34.67;;;;;;;;;;9989541;28;20104;-68
2022/12/09 03:37:06;;;;;;;46.65;35.72;;;;;;;;;;9987111;28;20134;-68
2022/12/09 03:42:03;;;;;;;52.22;35.53;;;;;;;;;;9983105;28;20100;-68
2022/12/09 03:46:58;;;;;;;51.60;34.13;;;;;;;;;;9989525;28;20055;-68
2022/12/09 03:52:16;;;;;;;51.35;36.15;;;;;;;;;;9983239;28;20058;-69
2022/12/09 03:57:14;;;;;;;44.67;34.28;;;;;;;;;;9989073;28;20070;-68
2022/12/09 04:02:11;;;;;;;47.90;36.60;;;;;;;;;;9990331;28;20073;-69
2022/12/09 04:07:05;;;;;;;45.80;32.67;;;;;;;;;;9980303;28;20078;-68
2022/12/09 04:11:59;;;;;;;45.65;32.75;;;;;;;;;;9991626;28;20063;-68
2022/12/09 04:16:53;;;;;;;43.83;33.22;;;;;;;;;;9986619;28;20133;-68
2022/12/09 04:21:47;;;;;;;44.35;32.83;;;;;;;;;;9976210;28;20123;-68
2022/12/09 04:26:41;;;;;;;47.85;36.08;;;;;;;;;;9984885;28;20063;-68
2022/12/09 04:31:35;;;;;;;45.83;33.80;;;;;;;;;;9991415;28;20050;-68
2022/12/09 04:36:29;;;;;;;42.38;32.65;;;;;;;;;;9974053;28;20712;-67
2022/12/09 04:41:22;;;;;;;48.58;35.10;;;;;;;;;;9989292;28;20089;-68
2022/12/09 04:46:16;;;;;;;48.03;33.03;;;;;;;;;;9985782;28;20490;-69
2022/12/09 04:51:12;;;;;;;44.58;33.13;;;;;;;;;;9983235;28;20063;-68
2022/12/09 04:56:15;;;;;;;46.15;34.78;;;;;;;;;;9980503;28;20054;-68
2022/12/09 05:01:10;;;;;;;46.78;34.67;;;;;;;;;;9978663;28;20054;-68
2022/12/09 05:06:11;;;;;;;47.22;33.38;;;;;;;;;;9971680;28;20058;-68
2022/12/09 05:11:05;;;;;;;52.65;35.42;;;;;;;;;;9968547;28;20075;-69
2022/12/09 05:16:11;;;;;;;48.83;33.88;;;;;;;;;;9981504;28;20054;-68
2022/12/09 05:21:11;;;;;;;48.63;34.35;;;;;;;;;;9973429;28;20061;-69
2022/12/09 05:26:07;;;;;;;47.33;35.28;;;;;;;;;;9989481;28;20059;-68
2022/12/09 05:31:02;;;;;;;49.60;33.63;;;;;;;;;;9977015;28;20065;-68
2022/12/09 05:35:56;;;;;;;52.75;34.22;;;;;;;;;;9989857;28;20057;-69
2022/12/09 05:40:50;;;;;;;47.58;33.20;;;;;;;;;;9982947;28;20100;-68
2022/12/09 05:45:44;;;;;;;55.47;34.55;;;;;;;;;;9979837;28;20051;-69
2022/12/09 05:50:38;;;;;;;55.03;32.88;;;;;;;;;;9980334;28;20069;-69
2022/12/09 05:55:32;;;;;;;51.10;33.13;;;;;;;;;;9964061;28;20058;-70
2022/12/09 06:00:27;;;;;;;47.20;33.03;;;;;;;;;;9978350;28;20071;-69
2022/12/09 06:05:22;;;;;;;51.00;32.60;;;;;;;;;;9977381;28;20050;-67
2022/12/09 06:10:16;;;;;;;51.85;34.90;;;;;;;;;;9987191;28;20046;-67
2022/12/09 06:15:11;;;;;;;53.00;33.00;;;;;;;;;;9980179;28;20134;-67
2022/12/09 06:20:12;;;;;;;54.25;32.55;;;;;;;;;;9972564;28;20142;-66
2022/12/09 06:25:06;;;;;;;48.35;34.28;;;;;;;;;;9974417;28;20054;-67
2022/12/09 06:30:01;;;;;;;54.00;31.85;;;;;;;;;;9979387;28;20051;-67
2022/12/09 06:34:55;;;;;;;49.72;32.70;;;;;;;;;;9976386;28;20054;-67
2022/12/09 06:39:49;;;;;;;44.00;30.30;;;;;;;;;;9980376;28;20050;-66
2022/12/09 06:44:43;;;;;;;45.63;28.75;;;;;;;;;;9983037;28;20054;-67
2022/12/09 06:49:37;;;;;;;46.28;31.42;;;;;;;;;;9973635;28;20050;-67
2022/12/09 06:54:33;;;;;;;46.92;29.83;;;;;;;;;;9971864;28;20124;-67
2022/12/09 06:59:27;;;;;;;43.38;29.45;;;;;;;;;;9979899;28;20137;-67
2022/12/09 07:04:21;;;;;;;43.15;28.20;;;;;;;;;;9977010;28;20049;-68
2022/12/09 07:09:18;;;;;;;40.95;28.88;;;;;;;;;;9977363;28;20069;-68
2022/12/09 07:14:14;;;;;;;48.65;32.03;;;;;;;;;;9977069;28;20050;-67
2022/12/09 07:19:16;;;;;;;42.22;29.13;;;;;;;;;;9977550;28;20050;-68
2022/12/09 07:24:11;;;;;;;40.03;27.90;;;;;;;;;;9977324;28;20108;-66
2022/12/09 07:29:06;;;;;;;42.83;28.17;;;;;;;;;;9980201;28;20039;-66
2022/12/09 07:34:00;;;;;;;41.42;29.10;;;;;;;;;;9979983;28;20055;-66
2022/12/09 07:39:06;;;;;;;38.38;25.98;;;;;;;;;;9979640;28;20433;-66
2022/12/09 07:44:00;;;;;;;41.65;27.77;;;;;;;;;;9979815;28;20489;-67
2022/12/09 07:48:54;;;;;;;36.55;25.13;;;;;;;;;;9980768;28;20126;-67
2022/12/09 07:53:48;;;;;;;36.53;24.42;;;;;;;;;;9977193;28;20047;-67
2022/12/09 07:58:44;;;;;;;33.95;25.10;;;;;;;;;;9966989;28;20059;-66
2022/12/09 08:03:38;;;;;;;30.55;22.50;;;;;;;;;;9989373;28;20047;-67
2022/12/09 08:08:32;;;;;;;29.85;23.08;;;;;;;;;;9991123;28;20053;-66
2022/12/09 08:13:27;;;;;;;30.38;21.73;;;;;;;;;;9987245;28;20077;-67
2022/12/09 08:18:21;;;;;;;37.40;26.35;;;;;;;;;;9987882;28;20054;-66
2022/12/09 08:23:16;;;;;;;27.27;20.58;;;;;;;;;;9987687;28;20494;-66
2022/12/09 08:28:11;;;;;;;25.35;16.95;;;;;;;;;;9985662;28;20394;-66
2022/12/09 08:33:05;;;;;;;28.67;19.20;;;;;;;;;;9987245;28;20052;-66
2022/12/09 08:37:59;;;;;;;26.67;18.23;;;;;;;;;;9984857;28;20473;-66
2022/12/09 08:42:53;;;;;;;23.85;18.40;;;;;;;;;;9986011;28;20197;-67
2022/12/09 08:47:47;;;;;;;27.70;19.42;;;;;;;;;;9978182;28;20069;-66
2022/12/09 08:52:42;;;;;;;21.23;13.50;;;;;;;;;;9980610;28;20457;-66
2022/12/09 08:57:35;;;;;;;23.30;16.50;;;;;;;;;;9981514;28;20046;-66
2022/12/09 09:02:30;;;;;;;27.08;20.23;;;;;;;;;;9973736;28;20120;-67
2022/12/09 09:07:24;;;;;;;31.23;21.67;;;;;;;;;;9984254;28;20410;-64
2022/12/09 09:12:18;;;;;;;33.75;19.33;;;;;;;;;;9982617;28;20042;-67
2022/12/09 09:17:13;;;;;;;37.85;27.20;;;;;;;;;;9982388;28;20054;-67
2022/12/09 09:22:07;;;;;;;32.60;23.10;;;;;;;;;;9976829;28;20085;-68
2022/12/09 09:27:00;;;;;;;29.25;20.15;;;;;;;;;;9979501;28;20141;-70
2022/12/09 09:31:55;;;;;;;32.88;24.02;;;;;;;;;;9970682;28;20073;-67
2022/12/09 09:36:50;;;;;;;63.58;41.63;;;;;;;;;;9976304;28;20070;-68
2022/12/09 09:42:05;;;;;;;146.93;90.65;;;;;;;;;;9980582;28;20050;-67
2022/12/09 09:47:10;;;;;;;149.23;91.00;;;;;;;;;;9979239;28;20085;-69
2022/12/09 09:52:08;;;;;;;60.78;41.15;;;;;;;;;;9979066;28;20060;-68
2022/12/09 09:57:33;;;;;;;40.35;31.15;;;;;;;;;;9979644;28;20073;-67
2022/12/09 10:02:53;;;;;;;48.85;32.38;;;;;;;;;;9979371;28;20494;-67
2022/12/09 10:08:01;;;;;;;96.22;69.70;;;;;;;;;;9997903;28;20113;-66
2022/12/09 10:13:05;;;;;;;68.18;47.13;;;;;;;;;;9977992;28;20074;-67
2022/12/09 10:18:26;;;;;;;29.00;22.95;;;;;;;;;;9979395;28;20513;-68
2022/12/09 10:23:21;;;;;;;33.33;28.85;;;;;;;;;;9985924;28;20158;-67
2022/12/09 10:28:30;;;;;;;25.70;22.80;;;;;;;;;;9987465;28;20460;-66
2022/12/09 10:33:34;;;;;;;27.73;24.67;;;;;;;;;;9986198;28;20230;-67
2022/12/09 10:38:30;;;;;;;18.80;15.98;;;;;;;;;;9979150;28;20414;-68
2022/12/09 10:43:36;;;;;;;22.90;19.98;;;;;;;;;;9985651;28;20109;-66
2022/12/09 10:48:36;;;;;;;18.13;15.30;;;;;;;;;;9978374;28;20069;-66
2022/12/09 10:53:31;;;;;;;17.40;14.73;;;;;;;;;;9985564;28;20069;-67
2022/12/09 10:58:29;;;;;;;17.23;14.88;;;;;;;;;;9986358;28;20054;-70
2022/12/09 11:03:37;;;;;;;20.40;12.82;;;;;;;;;;9982941;28;20101;-76
2022/12/09 11:08:31;;;;;;;18.98;14.57;;;;;;;;;;9980158;28;20085;-71
2022/12/09 11:13:36;;;;;;;17.00;15.13;;;;;;;;;;9963174;28;20072;-72
2022/12/09 11:18:35;;;;;;;16.10;11.95;;;;;;;;;;9970599;28;20572;-72
2022/12/09 11:23:29;;;;;;;15.05;13.38;;;;;;;;;;9961783;28;20050;-70
2022/12/09 11:28:39;;;;;;;15.15;13.02;;;;;;;;;;9954736;28;20054;-68
2022/12/09 11:33:57;;;;;;;15.60;13.43;;;;;;;;;;9976933;28;20077;-68
2022/12/09 11:39:09;;;;;;;14.07;12.02;;;;;;;;;;9979735;28;20445;-67
2022/12/09 11:44:19;;;;;;;12.52;10.85;;;;;;;;;;9970421;28;20058;-68
2022/12/09 11:49:15;;;;;;;12.70;11.40;;;;;;;;;;9987362;28;20046;-67
2022/12/09 11:54:21;;;;;;;37.38;27.38;;;;;;;;;;9973836;28;20058;-67
2022/12/09 11:59:19;;;;;;;27.95;22.00;;;;;;;;;;9966149;28;20047;-69
2022/12/09 12:04:31;;;;;;;17.43;12.20;;;;;;;;;;9970001;28;20050;-65
2022/12/09 12:09:47;;;;;;;38.83;34.90;;;;;;;;;;9983310;28;20078;-64
2022/12/09 12:14:42;;;;;;;15.68;14.07;;;;;;;;;;9982403;28;20066;-64
2022/12/09 12:19:40;;;;;;;10.73;8.95;;;;;;;;;;9966095;28;20067;-65
2022/12/09 12:24:44;;;;;;;10.00;8.95;;;;;;;;;;9980059;28;20073;-65
2022/12/09 12:29:48;;;;;;;8.73;7.88;;;;;;;;;;9974447;28;20073;-65
2022/12/09 12:34:53;;;;;;;9.73;7.22;;;;;;;;;;9980087;28;20038;-65
2022/12/09 12:40:16;;;;;;;9.85;8.85;;;;;;;;;;9971489;28;20080;-66
2022/12/09 12:51:14;;;;;;;7.07;6.38;;;;;;;;;;9986246;28;20457;-72
2022/12/09 12:56:14;;;;;;;9.13;8.23;;;;;;;;;;9988757;28;20055;-71
2022/12/09 13:01:11;;;;;;;7.68;6.95;;;;;;;;;;9978083;28;20057;-72
2022/12/09 13:06:11;;;;;;;8.15;7.35;;;;;;;;;;9974370;28;20047;-74
2022/12/09 13:11:13;;;;;;;7.35;6.20;;;;;;;;;;9982631;28;20132;-75
2022/12/09 13:16:28;;;;;;;7.45;6.75;;;;;;;;;;9981144;28;20054;-72
2022/12/09 13:21:24;;;;;;;8.23;7.43;;;;;;;;;;9989347;28;20081;-73
2022/12/09 13:26:20;;;;;;;116.32;92.93;;;;;;;;;;9988499;28;20512;-71
2022/12/09 13:31:13;;;;;;;21.65;19.25;;;;;;;;;;9988889;28;20070;-75
2022/12/09 13:36:12;;;;;;;8.25;7.45;;;;;;;;;;9988550;28;20503;-73
2022/12/09 13:42:51;;;;;;;6.90;6.22;;;;;;;;;;9987690;28;20077;-73
2022/12/09 13:46:44;;;;;;;6.68;5.97;;;;;;;;;;9978958;28;20050;-73
2022/12/09 13:51:51;;;;;;;6.60;6.00;;;;;;;;;;9987139;28;20062;-74
2022/12/09 13:57:01;;;;;;;6.55;5.95;;;;;;;;;;9987872;28;20073;-75
2022/12/09 14:02:30;;;;;;;8.90;8.02;;;;;;;;;;9989039;28;20042;-75
2022/12/09 14:07:35;;;;;;;6.20;5.60;;;;;;;;;;9987819;28;20046;-71
2022/12/09 14:12:29;;;;;;;7.70;7.00;;;;;;;;;;9987382;28;20050;-75
2022/12/09 14:17:25;;;;;;;6.70;5.70;;;;;;;;;;9988703;28;20050;-78
2022/12/09 14:22:19;;;;;;;6.63;6.07;;;;;;;;;;9988143;28;20112;-77
2022/12/09 14:27:21;;;;;;;6.65;6.00;;;;;;;;;;9985451;28;20137;-76
2022/12/09 14:32:25;;;;;;;7.47;6.78;;;;;;;;;;9987851;28;20078;-76
2022/12/09 14:37:23;;;;;;;9.30;6.95;;;;;;;;;;9986661;28;20465;-76
2022/12/09 14:43:04;;;;;;;7.03;6.43;;;;;;;;;;9987493;28;20042;-77
2022/12/09 14:47:58;;;;;;;;;;;;;;;;;;9980707;28;20046;-75
2022/12/09 14:52:59;;;;;;;7.85;7.15;;;;;;;;;;9987915;28;20020;-76
2022/12/09 14:57:55;;;;;;;6.88;5.80;;;;;;;;;;9986123;28;20422;-76
2022/12/09 15:02:52;;;;;;;6.45;5.95;;;;;;;;;;9987597;28;20046;-66
2022/12/09 15:08:36;;;;;;;6.93;6.32;;;;;;;;;;9994403;28;20555;-66
2022/12/09 15:13:38;;;;;;;7.35;6.65;;;;;;;;;;9993588;28;20046;-66
2022/12/09 15:18:36;;;;;;;7.22;6.47;;;;;;;;;;9994041;28;20047;-66
2022/12/09 15:23:52;;;;;;;6.80;6.20;;;;;;;;;;9994109;28;20069;-64
2022/12/09 15:28:51;;;;;;;7.07;6.47;;;;;;;;;;9995258;28;20074;-64
2022/12/09 15:33:52;;;;;;;7.85;7.10;;;;;;;;;;9992065;28;20083;-65
2022/12/09 15:38:52;;;;;;;6.63;6.03;;;;;;;;;;9993499;28;20050;-65
2022/12/09 15:43:50;;;;;;;6.68;6.07;;;;;;;;;;9992667;28;20051;-65
2022/12/09 15:48:58;;;;;;;8.68;7.88;;;;;;;;;;9992962;28;20161;-65
2022/12/09 15:53:59;;;;;;;9.98;8.98;;;;;;;;;;9994216;28;20066;-67
2022/12/09 15:58:58;;;;;;;202.55;113.95;;;;;;;;;;9991488;28;20077;-63
2022/12/09 16:03:55;;;;;;;64.15;38.22;;;;;;;;;;9992464;28;20129;-63
2022/12/09 16:08:53;;;;;;;13.33;12.03;;;;;;;;;;9992466;28;20159;-64
2022/12/09 16:14:00;;;;;;;13.63;12.43;;;;;;;;;;9989427;28;20050;-65
2022/12/09 16:19:01;;;;;;;13.48;12.18;;;;;;;;;;9992652;28;20420;-63
2022/12/09 16:24:13;;;;;;;9.63;8.57;;;;;;;;;;9984460;28;20085;-66
2022/12/09 16:29:27;;;;;;;12.27;11.00;;;;;;;;;;9983316;28;20134;-73
2022/12/09 16:34:21;;;;;;;15.63;14.02;;;;;;;;;;9986462;28;20065;-71
2022/12/09 16:39:23;;;;;;;16.15;14.05;;;;;;;;;;9976521;28;20105;-74
2022/12/09 16:44:26;;;;;;;16.73;15.02;;;;;;;;;;9973274;28;20061;-73
2022/12/09 16:49:21;;;;;;;14.80;13.25;;;;;;;;;;9979745;28;20053;-72
2022/12/09 16:54:15;;;;;;;18.70;14.68;;;;;;;;;;9981827;28;20060;-69
2022/12/09 16:59:13;;;;;;;19.05;16.15;;;;;;;;;;9981084;28;20050;-72
2022/12/09 17:04:24;;;;;;;18.85;15.85;;;;;;;;;;9981814;28;20046;-72
2022/12/09 17:09:18;;;;;;;19.80;16.10;;;;;;;;;;9981361;28;20068;-71
2022/12/09 17:14:13;;;;;;;21.65;16.55;;;;;;;;;;9989158;28;20046;-70
2022/12/09 17:19:07;;;;;;;17.75;15.20;;;;;;;;;;9990209;28;20046;-69
2022/12/09 17:24:01;;;;;;;18.33;16.40;;;;;;;;;;9990251;28;20058;-68
2022/12/09 17:28:56;;;;;;;19.17;16.40;;;;;;;;;;9981662;28;20054;-76
2022/12/09 17:33:56;;;;;;;25.27;17.87;;;;;;;;;;9978733;28;20456;-69
2022/12/09 17:38:50;;;;;;;19.63;16.27;;;;;;;;;;9983898;28;20137;-69
2022/12/09 17:43:44;;;;;;;21.63;19.33;;;;;;;;;;9978274;28;20054;-70
2022/12/09 17:48:40;;;;;;;18.30;16.10;;;;;;;;;;9976709;28;20046;-69
2022/12/09 17:53:38;;;;;;;19.50;17.08;;;;;;;;;;9961957;28;20505;-69
2022/12/09 17:58:31;;;;;;;23.10;18.38;;;;;;;;;;9970381;28;20065;-67
2022/12/09 18:03:25;;;;;;;17.70;15.45;;;;;;;;;;9976707;28;20053;-67
2022/12/09 18:08:38;;;;;;;18.95;16.35;;;;;;;;;;9972616;28;20049;-67
2022/12/09 18:13:31;;;;;;;21.33;17.92;;;;;;;;;;9977199;28;20058;-65
2022/12/09 18:31:09;;;;;;;19.40;16.92;;;;;;;;;;10121280;27;20492;-62
2022/12/09 18:36:12;;;;;;;18.67;16.27;;;;;;;;;;10102498;28;20808;-61
2022/12/09 18:41:13;;;;;;;19.05;16.45;;;;;;;;;;10100152;28;20065;-62
2022/12/09 18:46:34;;;;;;;18.98;15.88;;;;;;;;;;10100472;28;20049;-62
2022/12/09 18:51:26;;;;;;;;;;;;;;;;;;10093063;28;20095;-61
2022/12/09 18:56:19;;;;;;;17.45;15.30;;;;;;;;;;10099843;28;20016;-62
2022/12/09 19:01:18;;;;;;;21.40;16.95;;;;;;;;;;10103699;28;20061;-64
2022/12/09 19:06:18;;;;;;;27.73;23.77;;;;;;;;;;10098888;28;20045;-64
2022/12/09 19:11:11;;;;;;;17.05;14.88;;;;;;;;;;10086869;28;20075;-64
2022/12/09 19:16:07;;;;;;;19.40;17.38;;;;;;;;;;10104012;28;20072;-63
2022/12/09 19:21:12;;;;;;;16.23;13.77;;;;;;;;;;10100706;28;20448;-63
2022/12/09 19:26:14;;;;;;;17.42;13.73;;;;;;;;;;10116986;28;20053;-63
2022/12/09 19:31:15;;;;;;;16.65;14.63;;;;;;;;;;10092458;28;20531;-64
2022/12/09 19:36:10;;;;;;;15.85;14.20;;;;;;;;;;10082674;28;20061;-64
2022/12/09 19:41:04;;;;;;;18.52;14.55;;;;;;;;;;10082450;28;20049;-63
2022/12/09 19:46:03;;;;;;;17.27;15.48;;;;;;;;;;10084923;28;20057;-64
2022/12/09 19:50:56;;;;;;;18.00;15.07;;;;;;;;;;10071193;28;20042;-67
2022/12/09 19:55:50;;;;;;;16.10;13.77;;;;;;;;;;10069128;28;20498;-64
2022/12/09 20:00:44;;;;;;;16.25;13.80;;;;;;;;;;10083104;28;20079;-63
2022/12/09 20:05:47;;;;;;;15.88;14.18;;;;;;;;;;10072558;28;20497;-66
2022/12/09 20:10:44;;;;;;;17.38;15.35;;;;;;;;;;10062599;28;20091;-66
2022/12/09 20:15:38;;;;;;;19.55;16.63;;;;;;;;;;10071287;28;20520;-66
2022/12/09 20:20:36;;;;;;;17.98;14.48;;;;;;;;;;10072038;28;20037;-66
2022/12/09 20:25:31;;;;;;;16.30;14.30;;;;;;;;;;10071550;28;20064;-65
2022/12/09 20:30:26;;;;;;;15.20;13.60;;;;;;;;;;10063060;28;20147;-70
2022/12/09 20:35:19;;;;;;;14.68;13.20;;;;;;;;;;10068530;28;20053;-64
2022/12/09 20:40:12;;;;;;;14.55;12.80;;;;;;;;;;10069203;28;20124;-64
2022/12/09 20:45:06;;;;;;;15.85;14.15;;;;;;;;;;10069127;28;20049;-64
2022/12/09 20:49:59;;;;;;;18.55;16.70;;;;;;;;;;10070620;28;20045;-64
2022/12/09 20:54:54;;;;;;;19.35;15.50;;;;;;;;;;10075759;28;20107;-65
2022/12/09 20:59:48;;;;;;;18.77;16.25;;;;;;;;;;10085658;28;20080;-64
2022/12/09 21:04:44;;;;;;;19.00;16.85;;;;;;;;;;10084602;28;20130;-65
2022/12/09 21:09:38;;;;;;;17.17;15.38;;;;;;;;;;10083959;28;20041;-63
2022/12/09 21:14:35;;;;;;;18.38;16.33;;;;;;;;;;10073139;28;20456;-66
2022/12/09 21:19:31;;;;;;;18.38;16.23;;;;;;;;;;10073892;28;20527;-64
2022/12/09 21:24:25;;;;;;;21.13;18.83;;;;;;;;;;10067143;28;20061;-64
2022/12/09 21:29:18;;;;;;;14.70;13.10;;;;;;;;;;10072702;28;20045;-63
2022/12/09 21:34:13;;;;;;;16.40;14.65;;;;;;;;;;10067604;28;20079;-63
2022/12/09 21:39:07;;;;;;;17.45;15.55;;;;;;;;;;10069274;28;20091;-63
2022/12/09 21:44:02;;;;;;;22.48;16.98;;;;;;;;;;10066703;28;20460;-65
2022/12/09 21:48:57;;;;;;;19.88;17.77;;;;;;;;;;10073119;28;20591;-63
2022/12/09 21:53:57;;;;;;;17.98;15.85;;;;;;;;;;10079304;28;20075;-63
2022/12/09 21:58:53;;;;;;;20.08;17.05;;;;;;;;;;10080820;28;20759;-64
2022/12/09 22:03:47;;;;;;;19.35;17.35;;;;;;;;;;10068231;28;20129;-63
2022/12/09 22:08:45;;;;;;;20.63;16.45;;;;;;;;;;10067596;28;20068;-63
2022/12/09 22:13:40;;;;;;;21.57;17.73;;;;;;;;;;10067594;28;20045;-64
2022/12/09 22:18:35;;;;;;;23.80;18.17;;;;;;;;;;10080407;28;20292;-64
2022/12/09 22:23:32;;;;;;;23.07;18.47;;;;;;;;;;10078803;28;20501;-64
2022/12/09 22:28:25;;;;;;;25.27;18.15;;;;;;;;;;10082879;28;20123;-63
2022/12/09 22:33:21;;;;;;;21.63;18.55;;;;;;;;;;10076023;28;20050;-63
2022/12/09 22:38:17;;;;;;;22.20;19.08;;;;;;;;;;10083752;28;20083;-64
2022/12/09 22:43:16;;;;;;;19.48;17.00;;;;;;;;;;10080454;28;20057;-64
2022/12/09 22:48:10;;;;;;;19.23;16.40;;;;;;;;;;10083221;28;20124;-63
2022/12/09 22:53:08;;;;;;;36.80;27.45;;;;;;;;;;10066029;28;20049;-63
2022/12/09 22:58:03;;;;;;;22.33;18.08;;;;;;;;;;10085729;28;20119;-63
2022/12/09 23:02:58;;;;;;;18.25;15.63;;;;;;;;;;10086867;28;20099;-63
2022/12/09 23:07:53;;;;;;;13.45;11.48;;;;;;;;;;10083292;28;20053;-63
2022/12/09 23:12:48;;;;;;;13.75;12.35;;;;;;;;;;10083983;28;20049;-63
2022/12/09 23:17:43;;;;;;;15.13;13.63;;;;;;;;;;10072327;28;20125;-63
2022/12/09 23:22:36;;;;;;;13.07;11.80;;;;;;;;;;10072388;28;20049;-63
2022/12/09 23:27:30;;;;;;;12.15;10.52;;;;;;;;;;10071688;28;20058;-62
2022/12/09 23:32:24;;;;;;;12.15;10.30;;;;;;;;;;10072202;28;20053;-63
2022/12/09 23:37:18;;;;;;;12.45;11.25;;;;;;;;;;10070894;28;20505;-62
2022/12/09 23:42:13;;;;;;;11.32;9.32;;;;;;;;;;10071506;28;20091;-62
2022/12/09 23:47:06;;;;;;;10.35;9.10;;;;;;;;;;10071763;28;20045;-62
2022/12/09 23:52:00;;;;;;;10.85;9.10;;;;;;;;;;10070455;28;20131;-62
2022/12/09 23:56:54;;;;;;;10.27;8.05;;;;;;;;;;10070452;28;20041;-62
